sensor_id;sensor_type;location;lat;lon;timestamp;pressure;altitude;pressure_sealevel;temperature;humidity
61037;BME280;57313;47.040;15.498;2022-08-03T00:02:14;97126.88;;;18.00;100.00
61037;BME280;57313;47.040;15.498;2022-08-03T00:04:42;97125.38;;;17.98;100.00
61037;BME280;57313;47.040;15.498;2022-08-03T00:07:10;97129.66;;;17.99;100.00
61037;BME280;57313;47.040;15.498;2022-08-03T00:09:37;97120.38;;;17.94;100.00
61037;BME280;57313;47.040;15.498;2022-08-03T00:12:07;97117.63;;;17.96;100.00
61037;BME280;57313;47.040;15.498;2022-08-03T00:14:34;97121.06;;;17.97;100.00
61037;BME280;57313;47.040;15.498;2022-08-03T00:17:02;97121.34;;;17.93;100.00
61037;BME280;57313;47.040;15.498;2022-08-03T00:19:29;97130.78;;;17.96;100.00
61037;BME280;57313;47.040;15.498;2022-08-03T00:21:56;97123.47;;;17.90;100.00
61037;BME280;57313;47.040;15.498;2022-08-03T00:24:24;97127.16;;;17.87;100.00
61037;BME280;57313;47.040;15.498;2022-08-03T00:26:51;97134.25;;;17.87;100.00
61037;BME280;57313;47.040;15.498;2022-08-03T00:29:21;97140.22;;;17.79;100.00
61037;BME280;57313;47.040;15.498;2022-08-03T00:31:48;97137.75;;;17.77;100.00
61037;BME280;57313;47.040;15.498;2022-08-03T00:34:18;97123.31;;;17.72;100.00
61037;BME280;57313;47.040;15.498;2022-08-03T00:37:02;97136.91;;;17.67;100.00
61037;BME280;57313;47.040;15.498;2022-08-03T00:39:29;97137.06;;;17.66;100.00
61037;BME280;57313;47.040;15.498;2022-08-03T00:42:01;97131.09;;;17.64;100.00
61037;BME280;57313;47.040;15.498;2022-08-03T00:44:40;97132.75;;;17.65;100.00
61037;BME280;57313;47.040;15.498;2022-08-03T00:47:10;97139.00;;;17.64;100.00
61037;BME280;57313;47.040;15.498;2022-08-03T00:49:38;97136.09;;;17.57;100.00
61037;BME280;57313;47.040;15.498;2022-08-03T00:52:08;97143.72;;;17.50;100.00
61037;BME280;57313;47.040;15.498;2022-08-03T00:54:37;97139.44;;;17.49;100.00
61037;BME280;57313;47.040;15.498;2022-08-03T00:57:06;97131.00;;;17.46;100.00
61037;BME280;57313;47.040;15.498;2022-08-03T00:59:33;97132.09;;;17.43;100.00
61037;BME280;57313;47.040;15.498;2022-08-03T01:02:08;97140.13;;;17.41;100.00
61037;BME280;57313;47.040;15.498;2022-08-03T01:04:36;97143.75;;;17.40;100.00
61037;BME280;57313;47.040;15.498;2022-08-03T01:07:14;97130.00;;;17.37;100.00
61037;BME280;57313;47.040;15.498;2022-08-03T01:09:51;97129.34;;;17.35;100.00
61037;BME280;57313;47.040;15.498;2022-08-03T01:12:31;97142.22;;;17.38;100.00
61037;BME280;57313;47.040;15.498;2022-08-03T01:15:03;97139.72;;;17.36;100.00
61037;BME280;57313;47.040;15.498;2022-08-03T01:17:39;97136.69;;;17.31;100.00
61037;BME280;57313;47.040;15.498;2022-08-03T01:20:13;97132.66;;;17.27;100.00
61037;BME280;57313;47.040;15.498;2022-08-03T01:23:09;97139.34;;;17.21;100.00
61037;BME280;57313;47.040;15.498;2022-08-03T01:25:58;97128.22;;;17.18;100.00
61037;BME280;57313;47.040;15.498;2022-08-03T01:28:47;97132.81;;;17.16;100.00
61037;BME280;57313;47.040;15.498;2022-08-03T01:31:26;97137.41;;;17.14;100.00
61037;BME280;57313;47.040;15.498;2022-08-03T01:33:58;97132.41;;;17.11;100.00
61037;BME280;57313;47.040;15.498;2022-08-03T01:36:31;97124.66;;;17.09;100.00
61037;BME280;57313;47.040;15.498;2022-08-03T01:39:02;97134.59;;;17.05;100.00
61037;BME280;57313;47.040;15.498;2022-08-03T01:41:36;97137.50;;;17.02;100.00
61037;BME280;57313;47.040;15.498;2022-08-03T01:44:07;97128.09;;;17.00;100.00
61037;BME280;57313;47.040;15.498;2022-08-03T01:46:59;97119.09;;;17.02;100.00
61037;BME280;57313;47.040;15.498;2022-08-03T01:49:29;97125.34;;;17.01;100.00
61037;BME280;57313;47.040;15.498;2022-08-03T01:51:58;97130.75;;;17.00;100.00
61037;BME280;57313;47.040;15.498;2022-08-03T01:54:35;97126.16;;;17.02;100.00
61037;BME280;57313;47.040;15.498;2022-08-03T01:57:08;97129.91;;;17.09;100.00
61037;BME280;57313;47.040;15.498;2022-08-03T01:59:39;97116.59;;;17.01;100.00
61037;BME280;57313;47.040;15.498;2022-08-03T02:02:13;97127.41;;;16.98;100.00
61037;BME280;57313;47.040;15.498;2022-08-03T02:05:02;97120.78;;;16.94;100.00
61037;BME280;57313;47.040;15.498;2022-08-03T02:07:33;97114.78;;;16.92;100.00
61037;BME280;57313;47.040;15.498;2022-08-03T02:10:03;97117.41;;;16.92;100.00
61037;BME280;57313;47.040;15.498;2022-08-03T02:12:36;97120.31;;;16.89;100.00
61037;BME280;57313;47.040;15.498;2022-08-03T02:15:06;97115.44;;;16.84;100.00
61037;BME280;57313;47.040;15.498;2022-08-03T02:17:36;97120.03;;;16.82;100.00
61037;BME280;57313;47.040;15.498;2022-08-03T02:20:10;97116.84;;;16.78;100.00
61037;BME280;57313;47.040;15.498;2022-08-03T02:22:39;97121.25;;;16.78;100.00
61037;BME280;57313;47.040;15.498;2022-08-03T02:25:08;97109.91;;;16.77;100.00
61037;BME280;57313;47.040;15.498;2022-08-03T02:27:40;97114.63;;;16.74;100.00
61037;BME280;57313;47.040;15.498;2022-08-03T02:30:12;97126.38;;;16.79;100.00
61037;BME280;57313;47.040;15.498;2022-08-03T02:32:53;97120.69;;;16.74;100.00
61037;BME280;57313;47.040;15.498;2022-08-03T02:35:23;97106.00;;;16.72;100.00
61037;BME280;57313;47.040;15.498;2022-08-03T02:37:56;97112.25;;;16.71;100.00
61037;BME280;57313;47.040;15.498;2022-08-03T02:40:27;97113.09;;;16.71;100.00
61037;BME280;57313;47.040;15.498;2022-08-03T02:43:11;97108.22;;;16.66;100.00
61037;BME280;57313;47.040;15.498;2022-08-03T02:45:45;97111.69;;;16.67;100.00
61037;BME280;57313;47.040;15.498;2022-08-03T02:48:19;97104.47;;;16.59;100.00
61037;BME280;57313;47.040;15.498;2022-08-03T02:50:49;97109.72;;;16.59;100.00
61037;BME280;57313;47.040;15.498;2022-08-03T02:53:19;97105.72;;;16.55;100.00
61037;BME280;57313;47.040;15.498;2022-08-03T02:55:48;97104.91;;;16.55;100.00
61037;BME280;57313;47.040;15.498;2022-08-03T02:58:17;97112.50;;;16.58;100.00
61037;BME280;57313;47.040;15.498;2022-08-03T03:00:46;97107.53;;;16.55;100.00
61037;BME280;57313;47.040;15.498;2022-08-03T03:03:17;97111.94;;;16.54;100.00
61037;BME280;57313;47.040;15.498;2022-08-03T03:05:46;97106.97;;;16.51;100.00
61037;BME280;57313;47.040;15.498;2022-08-03T03:08:24;97115.56;;;16.53;100.00
61037;BME280;57313;47.040;15.498;2022-08-03T03:10:57;97115.44;;;16.55;100.00
61037;BME280;57313;47.040;15.498;2022-08-03T03:13:27;97115.13;;;16.58;100.00
61037;BME280;57313;47.040;15.498;2022-08-03T03:15:59;97116.94;;;16.57;100.00
61037;BME280;57313;47.040;15.498;2022-08-03T03:18:30;97117.47;;;16.51;100.00
61037;BME280;57313;47.040;15.498;2022-08-03T03:20:58;97101.41;;;16.44;100.00
61037;BME280;57313;47.040;15.498;2022-08-03T03:23:29;97104.19;;;16.43;100.00
61037;BME280;57313;47.040;15.498;2022-08-03T03:25:57;97106.13;;;16.41;100.00
61037;BME280;57313;47.040;15.498;2022-08-03T03:28:25;97101.41;;;16.35;100.00
61037;BME280;57313;47.040;15.498;2022-08-03T03:30:52;97109.16;;;16.36;100.00
61037;BME280;57313;47.040;15.498;2022-08-03T03:33:21;97113.69;;;16.34;100.00
61037;BME280;57313;47.040;15.498;2022-08-03T03:36:06;97111.06;;;16.34;100.00
61037;BME280;57313;47.040;15.498;2022-08-03T03:38:34;97108.16;;;16.37;100.00
61037;BME280;57313;47.040;15.498;2022-08-03T03:41:02;97104.03;;;16.35;100.00
61037;BME280;57313;47.040;15.498;2022-08-03T03:43:31;97108.56;;;16.32;100.00
61037;BME280;57313;47.040;15.498;2022-08-03T03:46:01;97110.09;;;16.25;100.00
61037;BME280;57313;47.040;15.498;2022-08-03T03:48:28;97104.97;;;16.24;100.00
61037;BME280;57313;47.040;15.498;2022-08-03T03:50:59;97105.78;;;16.24;100.00
61037;BME280;57313;47.040;15.498;2022-08-03T03:53:28;97106.06;;;16.21;100.00
61037;BME280;57313;47.040;15.498;2022-08-03T03:55:55;97102.03;;;16.17;100.00
61037;BME280;57313;47.040;15.498;2022-08-03T03:58:30;97112.97;;;16.22;100.00
61037;BME280;57313;47.040;15.498;2022-08-03T04:00:58;97114.19;;;16.18;100.00
61037;BME280;57313;47.040;15.498;2022-08-03T04:03:25;97123.63;;;16.21;100.00
61037;BME280;57313;47.040;15.498;2022-08-03T04:05:53;97122.78;;;16.20;100.00
61037;BME280;57313;47.040;15.498;2022-08-03T04:08:20;97131.63;;;16.19;100.00
61037;BME280;57313;47.040;15.498;2022-08-03T04:10:56;97128.63;;;16.24;100.00
61037;BME280;57313;47.040;15.498;2022-08-03T04:13:32;97131.38;;;16.22;100.00
61037;BME280;57313;47.040;15.498;2022-08-03T04:16:01;97133.00;;;16.23;100.00
61037;BME280;57313;47.040;15.498;2022-08-03T04:18:30;97139.00;;;16.25;100.00
61037;BME280;57313;47.040;15.498;2022-08-03T04:21:01;97140.91;;;16.23;100.00
61037;BME280;57313;47.040;15.498;2022-08-03T04:23:32;97141.75;;;16.24;100.00
61037;BME280;57313;47.040;15.498;2022-08-03T04:26:03;97146.75;;;16.27;100.00
61037;BME280;57313;47.040;15.498;2022-08-03T04:28:33;97149.78;;;16.32;100.00
61037;BME280;57313;47.040;15.498;2022-08-03T04:31:02;97151.47;;;16.33;100.00
61037;BME280;57313;47.040;15.498;2022-08-03T04:33:32;97151.06;;;16.38;100.00
61037;BME280;57313;47.040;15.498;2022-08-03T04:36:06;97156.75;;;16.43;100.00
61037;BME280;57313;47.040;15.498;2022-08-03T04:38:37;97153.31;;;16.52;100.00
61037;BME280;57313;47.040;15.498;2022-08-03T04:41:09;97154.41;;;16.49;100.00
61037;BME280;57313;47.040;15.498;2022-08-03T04:43:38;97158.56;;;16.52;100.00
61037;BME280;57313;47.040;15.498;2022-08-03T04:46:06;97157.19;;;16.58;100.00
61037;BME280;57313;47.040;15.498;2022-08-03T04:48:34;97167.56;;;16.59;100.00
61037;BME280;57313;47.040;15.498;2022-08-03T04:51:02;97166.34;;;16.63;100.00
61037;BME280;57313;47.040;15.498;2022-08-03T04:53:30;97166.38;;;16.73;100.00
61037;BME280;57313;47.040;15.498;2022-08-03T04:56:03;97177.75;;;16.83;100.00
61037;BME280;57313;47.040;15.498;2022-08-03T04:58:32;97169.22;;;16.91;100.00
61037;BME280;57313;47.040;15.498;2022-08-03T05:01:02;97171.03;;;17.00;100.00
61037;BME280;57313;47.040;15.498;2022-08-03T05:03:29;97176.28;;;17.10;100.00
61037;BME280;57313;47.040;15.498;2022-08-03T05:05:59;97175.72;;;17.16;100.00
61037;BME280;57313;47.040;15.498;2022-08-03T05:08:36;97176.72;;;17.25;100.00
61037;BME280;57313;47.040;15.498;2022-08-03T05:11:13;97178.66;;;17.33;100.00
61037;BME280;57313;47.040;15.498;2022-08-03T05:13:42;97181.84;;;17.36;100.00
61037;BME280;57313;47.040;15.498;2022-08-03T05:16:10;97175.19;;;17.42;100.00
61037;BME280;57313;47.040;15.498;2022-08-03T05:18:38;97173.66;;;17.49;100.00
61037;BME280;57313;47.040;15.498;2022-08-03T05:21:08;97182.38;;;17.59;100.00
61037;BME280;57313;47.040;15.498;2022-08-03T05:23:37;97176.56;;;17.66;100.00
61037;BME280;57313;47.040;15.498;2022-08-03T05:26:04;97177.66;;;17.73;100.00
61037;BME280;57313;47.040;15.498;2022-08-03T05:28:31;97177.25;;;17.77;100.00
61037;BME280;57313;47.040;15.498;2022-08-03T05:31:00;97175.81;;;17.83;100.00
61037;BME280;57313;47.040;15.498;2022-08-03T05:33:27;97177.22;;;17.87;100.00
61037;BME280;57313;47.040;15.498;2022-08-03T05:35:55;97176.53;;;17.95;100.00
61037;BME280;57313;47.040;15.498;2022-08-03T05:38:31;97179.41;;;18.02;100.00
61037;BME280;57313;47.040;15.498;2022-08-03T05:41:02;97173.72;;;18.06;100.00
61037;BME280;57313;47.040;15.498;2022-08-03T05:43:49;97185.22;;;18.15;100.00
61037;BME280;57313;47.040;15.498;2022-08-03T05:46:18;97190.34;;;18.17;100.00
61037;BME280;57313;47.040;15.498;2022-08-03T05:48:46;97176.75;;;18.21;100.00
61037;BME280;57313;47.040;15.498;2022-08-03T05:51:14;97181.28;;;18.29;100.00
61037;BME280;57313;47.040;15.498;2022-08-03T05:53:43;97179.84;;;18.35;100.00
61037;BME280;57313;47.040;15.498;2022-08-03T05:56:10;97187.03;;;18.42;100.00
61037;BME280;57313;47.040;15.498;2022-08-03T05:58:41;97188.13;;;18.50;100.00
61037;BME280;57313;47.040;15.498;2022-08-03T06:01:08;97184.09;;;18.55;100.00
61037;BME280;57313;47.040;15.498;2022-08-03T06:03:38;97186.81;;;18.63;100.00
61037;BME280;57313;47.040;15.498;2022-08-03T06:06:05;97182.94;;;18.68;100.00
61037;BME280;57313;47.040;15.498;2022-08-03T06:08:32;97191.06;;;18.74;100.00
61037;BME280;57313;47.040;15.498;2022-08-03T06:11:00;97187.16;;;18.78;100.00
61037;BME280;57313;47.040;15.498;2022-08-03T06:13:27;97184.06;;;18.83;100.00
61037;BME280;57313;47.040;15.498;2022-08-03T06:15:54;97187.50;;;18.93;100.00
61037;BME280;57313;47.040;15.498;2022-08-03T06:18:23;97189.56;;;18.99;100.00
61037;BME280;57313;47.040;15.498;2022-08-03T06:20:53;97188.16;;;19.05;100.00
61037;BME280;57313;47.040;15.498;2022-08-03T06:23:21;97197.56;;;19.08;100.00
61037;BME280;57313;47.040;15.498;2022-08-03T06:26:10;97196.66;;;19.17;100.00
61037;BME280;57313;47.040;15.498;2022-08-03T06:28:39;97196.91;;;19.24;100.00
61037;BME280;57313;47.040;15.498;2022-08-03T06:31:20;97199.09;;;19.28;100.00
61037;BME280;57313;47.040;15.498;2022-08-03T06:33:47;97200.13;;;19.35;100.00
61037;BME280;57313;47.040;15.498;2022-08-03T06:36:38;97198.56;;;19.43;100.00
61037;BME280;57313;47.040;15.498;2022-08-03T06:39:06;97196.84;;;19.51;100.00
61037;BME280;57313;47.040;15.498;2022-08-03T06:41:34;97195.38;;;19.57;100.00
61037;BME280;57313;47.040;15.498;2022-08-03T06:44:11;97202.38;;;19.66;100.00
61037;BME280;57313;47.040;15.498;2022-08-03T06:46:39;97197.31;;;19.73;100.00
61037;BME280;57313;47.040;15.498;2022-08-03T06:49:06;97192.97;;;19.82;100.00
61037;BME280;57313;47.040;15.498;2022-08-03T06:51:39;97200.28;;;19.88;100.00
61037;BME280;57313;47.040;15.498;2022-08-03T06:54:26;97195.03;;;19.96;100.00
61037;BME280;57313;47.040;15.498;2022-08-03T06:56:58;97188.97;;;20.04;100.00
61037;BME280;57313;47.040;15.498;2022-08-03T06:59:26;97198.94;;;20.10;100.00
61037;BME280;57313;47.040;15.498;2022-08-03T07:02:13;97202.63;;;20.17;100.00
61037;BME280;57313;47.040;15.498;2022-08-03T07:04:45;97202.66;;;20.25;100.00
61037;BME280;57313;47.040;15.498;2022-08-03T07:07:17;97209.81;;;20.33;100.00
61037;BME280;57313;47.040;15.498;2022-08-03T07:09:45;97212.13;;;20.36;100.00
61037;BME280;57313;47.040;15.498;2022-08-03T07:12:25;97208.72;;;20.44;100.00
61037;BME280;57313;47.040;15.498;2022-08-03T07:14:53;97205.91;;;20.45;100.00
61037;BME280;57313;47.040;15.498;2022-08-03T07:17:26;97210.72;;;20.50;100.00
61037;BME280;57313;47.040;15.498;2022-08-03T07:19:56;97204.78;;;20.56;100.00
61037;BME280;57313;47.040;15.498;2022-08-03T07:22:28;97199.94;;;20.70;100.00
61037;BME280;57313;47.040;15.498;2022-08-03T07:24:59;97217.03;;;20.84;100.00
61037;BME280;57313;47.040;15.498;2022-08-03T07:27:27;97214.41;;;20.92;96.53
61037;BME280;57313;47.040;15.498;2022-08-03T07:29:55;97216.25;;;21.00;90.63
61037;BME280;57313;47.040;15.498;2022-08-03T07:32:23;97210.63;;;21.11;85.51
61037;BME280;57313;47.040;15.498;2022-08-03T07:34:54;97208.84;;;21.20;89.13
61037;BME280;57313;47.040;15.498;2022-08-03T07:37:29;97215.97;;;21.27;91.59
61037;BME280;57313;47.040;15.498;2022-08-03T07:40:03;97219.63;;;21.34;87.09
61037;BME280;57313;47.040;15.498;2022-08-03T07:42:31;97210.53;;;21.45;83.24
61037;BME280;57313;47.040;15.498;2022-08-03T07:44:59;97217.03;;;21.51;89.02
61037;BME280;57313;47.040;15.498;2022-08-03T07:47:28;97209.25;;;21.49;88.38
61037;BME280;57313;47.040;15.498;2022-08-03T07:50:04;97206.44;;;21.59;88.96
61037;BME280;57313;47.040;15.498;2022-08-03T07:52:38;97200.13;;;21.68;86.97
61037;BME280;57313;47.040;15.498;2022-08-03T07:55:10;97209.25;;;21.82;83.55
61037;BME280;57313;47.040;15.498;2022-08-03T07:57:38;97202.28;;;21.90;85.12
61037;BME280;57313;47.040;15.498;2022-08-03T08:00:12;97199.47;;;21.91;88.90
61037;BME280;57313;47.040;15.498;2022-08-03T08:02:41;97210.06;;;21.99;87.86
61037;BME280;57313;47.040;15.498;2022-08-03T08:05:09;97206.56;;;22.07;87.23
61037;BME280;57313;47.040;15.498;2022-08-03T08:07:41;97205.91;;;22.13;86.85
61037;BME280;57313;47.040;15.498;2022-08-03T08:10:09;97195.44;;;22.20;88.33
61037;BME280;57313;47.040;15.498;2022-08-03T08:12:39;97209.50;;;22.29;87.07
61037;BME280;57313;47.040;15.498;2022-08-03T08:15:09;97200.91;;;22.18;89.02
61037;BME280;57313;47.040;15.498;2022-08-03T08:17:41;97210.03;;;22.32;89.33
61037;BME280;57313;47.040;15.498;2022-08-03T08:20:10;97207.19;;;22.42;90.01
61037;BME280;57313;47.040;15.498;2022-08-03T08:22:42;97209.34;;;22.47;85.48
61037;BME280;57313;47.040;15.498;2022-08-03T08:25:10;97207.94;;;22.59;89.96
61037;BME280;57313;47.040;15.498;2022-08-03T08:27:42;97211.41;;;22.68;87.76
61037;BME280;57313;47.040;15.498;2022-08-03T08:30:31;97204.44;;;22.75;89.33
61037;BME280;57313;47.040;15.498;2022-08-03T08:33:01;97215.00;;;22.83;87.40
61037;BME280;57313;47.040;15.498;2022-08-03T08:35:29;97203.00;;;22.95;85.49
61037;BME280;57313;47.040;15.498;2022-08-03T08:38:01;97212.22;;;23.08;85.82
61037;BME280;57313;47.040;15.498;2022-08-03T08:40:31;97207.91;;;23.15;81.38
61037;BME280;57313;47.040;15.498;2022-08-03T08:43:02;97202.59;;;23.15;79.90
61037;BME280;57313;47.040;15.498;2022-08-03T08:45:30;97204.56;;;23.21;80.95
61037;BME280;57313;47.040;15.498;2022-08-03T08:48:01;97202.34;;;23.25;80.62
61037;BME280;57313;47.040;15.498;2022-08-03T08:50:36;97204.66;;;23.28;82.50
61037;BME280;57313;47.040;15.498;2022-08-03T08:53:09;97201.94;;;23.36;81.45
61037;BME280;57313;47.040;15.498;2022-08-03T08:55:46;97199.72;;;23.48;81.59
61037;BME280;57313;47.040;15.498;2022-08-03T08:58:28;97204.78;;;23.58;79.84
61037;BME280;57313;47.040;15.498;2022-08-03T09:00:57;97205.38;;;23.68;78.45
61037;BME280;57313;47.040;15.498;2022-08-03T09:03:25;97194.66;;;23.76;82.88
61037;BME280;57313;47.040;15.498;2022-08-03T09:05:58;97201.41;;;23.87;75.02
61037;BME280;57313;47.040;15.498;2022-08-03T09:08:32;97206.38;;;23.90;75.94
61037;BME280;57313;47.040;15.498;2022-08-03T09:11:00;97203.81;;;23.97;83.89
61037;BME280;57313;47.040;15.498;2022-08-03T09:13:28;97195.97;;;24.04;76.16
61037;BME280;57313;47.040;15.498;2022-08-03T09:16:10;97195.31;;;24.16;75.59
61037;BME280;57313;47.040;15.498;2022-08-03T09:18:39;97208.34;;;24.26;77.03
61037;BME280;57313;47.040;15.498;2022-08-03T09:21:15;97199.06;;;24.22;79.48
61037;BME280;57313;47.040;15.498;2022-08-03T09:24:04;97203.03;;;24.26;73.12
61037;BME280;57313;47.040;15.498;2022-08-03T09:26:50;97192.28;;;24.34;77.53
61037;BME280;57313;47.040;15.498;2022-08-03T09:29:20;97189.25;;;24.37;75.26
61037;BME280;57313;47.040;15.498;2022-08-03T09:31:47;97189.09;;;24.39;74.60
61037;BME280;57313;47.040;15.498;2022-08-03T09:34:16;97182.75;;;24.40;73.83
61037;BME280;57313;47.040;15.498;2022-08-03T09:36:45;97189.84;;;24.48;71.03
61037;BME280;57313;47.040;15.498;2022-08-03T09:39:16;97175.16;;;24.52;68.29
61037;BME280;57313;47.040;15.498;2022-08-03T09:42:09;97179.25;;;24.54;69.88
61037;BME280;57313;47.040;15.498;2022-08-03T09:44:42;97188.75;;;24.57;69.95
61037;BME280;57313;47.040;15.498;2022-08-03T09:47:11;97176.72;;;24.61;65.32
61037;BME280;57313;47.040;15.498;2022-08-03T09:49:40;97192.03;;;24.74;71.62
61037;BME280;57313;47.040;15.498;2022-08-03T09:52:12;97180.91;;;24.85;67.30
61037;BME280;57313;47.040;15.498;2022-08-03T09:55:07;97168.94;;;24.96;68.99
61037;BME280;57313;47.040;15.498;2022-08-03T09:58:03;97166.09;;;24.98;66.67
61037;BME280;57313;47.040;15.498;2022-08-03T10:00:31;97174.09;;;24.98;67.48
61037;BME280;57313;47.040;15.498;2022-08-03T10:03:03;97163.25;;;24.99;67.53
61037;BME280;57313;47.040;15.498;2022-08-03T10:05:31;97163.41;;;25.13;64.98
61037;BME280;57313;47.040;15.498;2022-08-03T10:07:59;97162.63;;;25.19;62.81
61037;BME280;57313;47.040;15.498;2022-08-03T10:10:41;97155.09;;;25.22;63.45
61037;BME280;57313;47.040;15.498;2022-08-03T10:13:13;97159.50;;;25.30;62.78
61037;BME280;57313;47.040;15.498;2022-08-03T10:15:42;97151.31;;;25.32;65.74
61037;BME280;57313;47.040;15.498;2022-08-03T10:18:30;97156.19;;;25.50;65.41
61037;BME280;57313;47.040;15.498;2022-08-03T10:21:02;97152.88;;;25.48;62.07
61037;BME280;57313;47.040;15.498;2022-08-03T10:23:33;97144.78;;;25.56;66.12
61037;BME280;57313;47.040;15.498;2022-08-03T10:26:06;97139.47;;;25.62;57.32
61037;BME280;57313;47.040;15.498;2022-08-03T10:28:35;97145.47;;;25.71;60.88
61037;BME280;57313;47.040;15.498;2022-08-03T10:31:12;97142.69;;;25.79;60.50
61037;BME280;57313;47.040;15.498;2022-08-03T10:33:59;97152.63;;;25.92;65.03
61037;BME280;57313;47.040;15.498;2022-08-03T10:36:31;97152.50;;;26.01;62.59
61037;BME280;57313;47.040;15.498;2022-08-03T10:39:00;97142.38;;;25.96;55.79
61037;BME280;57313;47.040;15.498;2022-08-03T10:41:44;97135.91;;;26.05;57.58
61037;BME280;57313;47.040;15.498;2022-08-03T10:44:23;97144.59;;;26.14;53.76
61037;BME280;57313;47.040;15.498;2022-08-03T10:46:52;97149.16;;;26.20;55.13
61037;BME280;57313;47.040;15.498;2022-08-03T10:49:20;97140.25;;;26.06;54.37
61037;BME280;57313;47.040;15.498;2022-08-03T10:52:02;97137.63;;;25.91;54.05
61037;BME280;57313;47.040;15.498;2022-08-03T10:54:50;97130.00;;;25.88;55.01
61037;BME280;57313;47.040;15.498;2022-08-03T10:57:51;97127.28;;;26.03;57.28
61037;BME280;57313;47.040;15.498;2022-08-03T11:00:26;97131.69;;;26.18;56.21
61037;BME280;57313;47.040;15.498;2022-08-03T11:03:05;97124.72;;;26.17;53.05
61037;BME280;57313;47.040;15.498;2022-08-03T11:05:36;97125.94;;;26.21;53.85
61037;BME280;57313;47.040;15.498;2022-08-03T11:11:39;97130.78;;;26.39;60.64
61037;BME280;57313;47.040;15.498;2022-08-03T11:14:10;97128.75;;;26.47;57.91
61037;BME280;57313;47.040;15.498;2022-08-03T11:16:39;97115.03;;;26.57;57.19
61037;BME280;57313;47.040;15.498;2022-08-03T11:19:09;97124.56;;;26.66;59.88
61037;BME280;57313;47.040;15.498;2022-08-03T11:22:03;97113.28;;;26.71;56.70
61037;BME280;57313;47.040;15.498;2022-08-03T11:24:58;97116.75;;;26.72;54.39
61037;BME280;57313;47.040;15.498;2022-08-03T11:27:27;97114.53;;;26.82;54.41
61037;BME280;57313;47.040;15.498;2022-08-03T11:29:58;97111.88;;;26.95;55.52
61037;BME280;57313;47.040;15.498;2022-08-03T11:32:55;97109.66;;;27.05;52.32
61037;BME280;57313;47.040;15.498;2022-08-03T11:35:26;97113.78;;;27.15;52.85
61037;BME280;57313;47.040;15.498;2022-08-03T11:38:07;97119.53;;;27.25;51.21
61037;BME280;57313;47.040;15.498;2022-08-03T11:40:38;97107.63;;;27.28;48.16
61037;BME280;57313;47.040;15.498;2022-08-03T11:43:07;97104.78;;;27.36;48.94
61037;BME280;57313;47.040;15.498;2022-08-03T11:45:37;97114.25;;;27.32;49.73
61037;BME280;57313;47.040;15.498;2022-08-03T11:48:16;97108.44;;;27.21;49.64
61037;BME280;57313;47.040;15.498;2022-08-03T11:50:44;97104.09;;;27.20;47.60
61037;BME280;57313;47.040;15.498;2022-08-03T11:53:17;97092.41;;;27.21;47.80
61037;BME280;57313;47.040;15.498;2022-08-03T11:55:46;97091.59;;;27.21;48.24
61037;BME280;57313;47.040;15.498;2022-08-03T11:58:19;97089.53;;;27.23;48.21
61037;BME280;57313;47.040;15.498;2022-08-03T12:01:09;97087.50;;;27.32;48.14
61037;BME280;57313;47.040;15.498;2022-08-03T12:03:37;97085.25;;;27.35;50.02
61037;BME280;57313;47.040;15.498;2022-08-03T12:06:08;97081.75;;;27.48;46.21
61037;BME280;57313;47.040;15.498;2022-08-03T12:08:37;97084.44;;;27.55;48.85
61037;BME280;57313;47.040;15.498;2022-08-03T12:11:07;97075.59;;;27.61;46.70
61037;BME280;57313;47.040;15.498;2022-08-03T12:13:39;97082.13;;;27.65;47.97
61037;BME280;57313;47.040;15.498;2022-08-03T12:16:29;97076.81;;;27.72;46.70
61037;BME280;57313;47.040;15.498;2022-08-03T12:18:59;97062.59;;;27.78;46.34
61037;BME280;57313;47.040;15.498;2022-08-03T12:21:29;97074.31;;;27.77;47.87
61037;BME280;57313;47.040;15.498;2022-08-03T12:23:58;97077.19;;;27.82;46.56
61037;BME280;57313;47.040;15.498;2022-08-03T12:26:26;97067.09;;;27.91;45.42
61037;BME280;57313;47.040;15.498;2022-08-03T12:28:55;97073.47;;;27.97;47.14
61037;BME280;57313;47.040;15.498;2022-08-03T12:31:25;97068.94;;;28.04;45.56
61037;BME280;57313;47.040;15.498;2022-08-03T12:34:00;97063.34;;;28.19;48.64
61037;BME280;57313;47.040;15.498;2022-08-03T12:36:29;97071.31;;;28.32;47.96
61037;BME280;57313;47.040;15.498;2022-08-03T12:38:59;97062.41;;;28.45;47.62
61037;BME280;57313;47.040;15.498;2022-08-03T12:41:29;97058.66;;;28.59;49.05
61037;BME280;57313;47.040;15.498;2022-08-03T12:43:58;97055.72;;;28.68;44.62
61037;BME280;57313;47.040;15.498;2022-08-03T12:46:30;97055.94;;;28.66;43.16
61037;BME280;57313;47.040;15.498;2022-08-03T12:49:05;97058.63;;;28.66;44.02
61037;BME280;57313;47.040;15.498;2022-08-03T12:51:36;97056.00;;;28.53;43.93
61037;BME280;57313;47.040;15.498;2022-08-03T12:54:04;97048.16;;;28.51;42.87
61037;BME280;57313;47.040;15.498;2022-08-03T12:56:33;97048.34;;;28.56;44.60
61037;BME280;57313;47.040;15.498;2022-08-03T12:59:23;97046.03;;;28.67;45.23
61037;BME280;57313;47.040;15.498;2022-08-03T13:02:02;97037.13;;;28.73;44.23
61037;BME280;57313;47.040;15.498;2022-08-03T13:04:37;97046.41;;;28.77;44.29
61037;BME280;57313;47.040;15.498;2022-08-03T13:07:09;97032.34;;;28.81;42.83
61037;BME280;57313;47.040;15.498;2022-08-03T13:09:43;97032.13;;;28.83;42.99
61037;BME280;57313;47.040;15.498;2022-08-03T13:12:13;97030.38;;;28.70;42.67
61037;BME280;57313;47.040;15.498;2022-08-03T13:14:43;97040.88;;;28.72;42.04
61037;BME280;57313;47.040;15.498;2022-08-03T13:17:11;97029.56;;;28.63;41.01